createdAt,value
2017-12-20T00:00:20.487Z,78.67
2017-12-20T00:02:48.849Z,78.33
2017-12-20T00:05:17.217Z,77.93
2017-12-20T00:07:45.548Z,78.15
2017-12-20T00:10:14.207Z,77.38
2017-12-20T00:12:42.571Z,77.16
2017-12-20T00:15:10.919Z,77.91
2017-12-20T00:17:39.267Z,77.15
2017-12-20T00:20:07.603Z,77.31
2017-12-20T00:22:35.962Z,77.62
2017-12-20T00:25:04.333Z,77.85
2017-12-20T00:27:33.440Z,78.17
2017-12-20T00:30:01.814Z,77.99
2017-12-20T00:32:30.769Z,78.40
2017-12-20T00:34:59.102Z,78.33
2017-12-20T00:37:28.967Z,78.17
2017-12-20T00:39:57.338Z,78.26
2017-12-20T00:42:26.441Z,77.90
2017-12-20T00:44:54.824Z,78.18
2017-12-20T00:47:23.189Z,77.68
2017-12-20T00:49:52.319Z,78.16
2017-12-20T00:52:20.667Z,78.06
2017-12-20T00:54:50.234Z,78.59
2017-12-20T00:57:18.597Z,78.31
2017-12-20T00:59:46.945Z,77.81
2017-12-20T01:02:15.373Z,77.45
2017-12-20T01:04:43.747Z,77.06
2017-12-20T01:07:12.057Z,77.49
2017-12-20T01:09:41.234Z,77.31
2017-12-20T01:12:09.561Z,78.17
2017-12-20T01:14:37.952Z,78.58
2017-12-20T01:17:06.492Z,78.35
2017-12-20T01:19:35.619Z,78.34
2017-12-20T01:22:04.008Z,78.66
2017-12-20T01:24:32.376Z,78.79
2017-12-20T01:27:00.768Z,78.70
2017-12-20T01:29:29.145Z,78.81
2017-12-20T01:31:57.522Z,79.06
2017-12-20T01:34:25.867Z,79.53
2017-12-20T01:36:54.254Z,79.54
2017-12-20T01:39:24.046Z,79.48
2017-12-20T01:41:52.383Z,79.77
2017-12-20T01:44:20.752Z,79.90
2017-12-20T01:46:49.328Z,79.82
2017-12-20T01:49:17.683Z,79.35
2017-12-20T01:51:46.777Z,79.54
2017-12-20T01:54:15.900Z,79.92
2017-12-20T01:56:44.252Z,79.53
2017-12-20T01:59:13.339Z,78.87
2017-12-20T02:02:02.254Z,79.29
2017-12-20T02:04:30.609Z,79.06
2017-12-20T02:06:58.913Z,78.83
2017-12-20T02:09:27.252Z,78.45
2017-12-20T02:11:56.332Z,78.47
2017-12-20T02:14:24.653Z,78.65
2017-12-20T02:16:53.048Z,78.71
2017-12-20T02:19:21.359Z,78.84
2017-12-20T02:21:49.742Z,78.43
2017-12-20T02:24:18.419Z,78.81
2017-12-20T02:26:46.762Z,79.04
2017-12-20T02:29:15.082Z,79.47
2017-12-20T02:31:43.467Z,79.64
2017-12-20T02:34:11.821Z,79.60
2017-12-20T02:36:40.922Z,79.08
2017-12-20T02:39:09.300Z,78.71
2017-12-20T02:41:37.670Z,78.13
2017-12-20T02:44:06.018Z,78.03
2017-12-20T02:46:34.556Z,78.74
2017-12-20T02:49:02.907Z,79.45
2017-12-20T02:51:31.221Z,79.25
2017-12-20T02:54:00.048Z,79.02
2017-12-20T02:56:28.367Z,79.30
2017-12-20T02:58:57.466Z,80.15
2017-12-20T03:01:25.824Z,79.60
2017-12-20T03:03:54.163Z,79.34
2017-12-20T03:06:22.519Z,78.69
2017-12-20T03:08:51.137Z,79.37
2017-12-20T03:11:19.476Z,80.63
2017-12-20T03:13:47.822Z,80.94
2017-12-20T03:16:16.242Z,80.97
2017-12-20T03:18:44.610Z,80.95
2017-12-20T03:21:13.029Z,80.38
2017-12-20T03:23:41.405Z,80.02
2017-12-20T03:26:15.581Z,79.70
2017-12-20T03:28:44.354Z,80.21
2017-12-20T03:31:12.753Z,79.56
2017-12-20T03:33:41.097Z,79.77
2017-12-20T03:36:15.216Z,79.33
2017-12-20T03:38:44.141Z,80.20
2017-12-20T03:41:12.597Z,80.10
2017-12-20T03:43:40.995Z,79.97
2017-12-20T03:46:10.170Z,81.10
2017-12-20T03:48:38.560Z,80.81
2017-12-20T03:51:07.257Z,80.52
2017-12-20T03:53:36.380Z,81.51
2017-12-20T03:56:05.541Z,80.97
2017-12-20T03:58:33.987Z,80.40
2017-12-20T04:01:11.286Z,79.97
2017-12-20T04:03:39.657Z,79.51
2017-12-20T04:06:08.001Z,78.99
2017-12-20T04:08:37.092Z,78.81
2017-12-20T04:11:05.652Z,77.78
2017-12-20T04:13:34.016Z,77.78
2017-12-20T04:16:02.388Z,77.88
2017-12-20T04:18:30.751Z,78.20
2017-12-20T04:20:59.087Z,78.04
2017-12-20T04:23:27.419Z,78.20
2017-12-20T04:25:55.816Z,77.98
2017-12-20T04:28:24.170Z,77.60
2017-12-20T04:30:52.546Z,77.29
2017-12-20T04:33:21.216Z,77.72
2017-12-20T04:35:49.637Z,77.72
2017-12-20T04:38:18.063Z,78.21
2017-12-20T04:40:47.249Z,78.33
2017-12-20T04:43:15.588Z,78.29
2017-12-20T04:45:44.040Z,78.80
2017-12-20T04:48:12.484Z,78.89
2017-12-20T04:50:40.838Z,79.14
2017-12-20T04:53:09.178Z,79.36
2017-12-20T04:55:37.612Z,79.05
2017-12-20T04:58:05.949Z,79.44
2017-12-20T05:00:34.307Z,79.37
2017-12-20T05:03:02.711Z,79.67
2017-12-20T05:05:31.112Z,79.40
2017-12-20T05:07:59.495Z,79.28
2017-12-20T05:10:27.902Z,78.80
2017-12-20T05:12:56.217Z,79.09
2017-12-20T05:15:25.318Z,79.61
2017-12-20T05:17:54.046Z,80.20
2017-12-20T05:20:22.390Z,80.92
2017-12-20T05:22:50.739Z,80.68
2017-12-20T05:25:19.863Z,80.02
2017-12-20T05:27:48.378Z,80.63
2017-12-20T05:30:16.685Z,80.74
2017-12-20T05:32:45.028Z,80.69
2017-12-20T05:35:13.364Z,80.87
2017-12-20T05:37:41.716Z,80.87
2017-12-20T05:40:10.242Z,80.14
2017-12-20T05:42:38.571Z,81.16
2017-12-20T05:45:06.916Z,80.55
2017-12-20T05:47:35.290Z,79.64
2017-12-20T05:50:03.638Z,80.36
2017-12-20T05:52:31.996Z,80.26
2017-12-20T05:55:00.359Z,80.58
2017-12-20T05:57:28.714Z,80.04
2017-12-20T05:59:57.048Z,79.87
2017-12-20T06:02:26.776Z,79.92
2017-12-20T06:07:29.495Z,79.14
2017-12-20T06:09:57.842Z,79.47
2017-12-20T06:12:26.215Z,79.59
2017-12-20T06:14:54.634Z,80.16
2017-12-20T06:17:22.948Z,80.29
2017-12-20T06:19:51.309Z,80.67
2017-12-20T06:22:19.718Z,80.46
2017-12-20T06:25:01.552Z,79.89
2017-12-20T06:27:29.966Z,79.37
2017-12-20T06:29:58.339Z,79.26
2017-12-20T06:32:26.724Z,79.83
2017-12-20T06:34:55.123Z,80.36
2017-12-20T06:37:23.533Z,80.56
2017-12-20T06:40:03.793Z,80.85
2017-12-20T06:42:32.900Z,81.45
2017-12-20T06:45:01.322Z,81.10
2017-12-20T06:47:29.688Z,81.39
2017-12-20T06:49:58.027Z,81.27
2017-12-20T06:52:27.207Z,81.06
2017-12-20T06:54:56.357Z,80.77
2017-12-20T06:57:24.714Z,80.75
2017-12-20T06:59:53.087Z,80.87
2017-12-20T07:02:21.813Z,81.95
2017-12-20T07:04:50.169Z,81.41
2017-12-20T07:07:18.560Z,81.96
2017-12-20T07:09:46.966Z,82.38
2017-12-20T07:12:15.353Z,81.71
2017-12-20T07:14:43.701Z,81.51
2017-12-20T07:17:12.517Z,81.51
2017-12-20T07:19:40.951Z,81.56
2017-12-20T07:22:09.316Z,80.37
2017-12-20T07:24:37.916Z,80.12
2017-12-20T07:27:06.315Z,80.13
2017-12-20T07:29:34.642Z,80.61
2017-12-20T07:32:03.017Z,81.19
2017-12-20T07:34:31.388Z,81.16
2017-12-20T07:36:59.757Z,81.11
2017-12-20T07:39:28.125Z,80.16
2017-12-20T07:41:56.468Z,80.03
2017-12-20T07:44:24.859Z,80.04
2017-12-20T07:46:53.499Z,80.50
2017-12-20T07:49:21.870Z,81.56
2017-12-20T07:51:50.263Z,81.33
2017-12-20T07:54:18.630Z,80.89
2017-12-20T07:56:46.966Z,80.91
2017-12-20T07:59:15.289Z,81.10
2017-12-20T08:01:43.631Z,81.41
2017-12-20T08:04:12.031Z,81.50
2017-12-20T08:06:40.452Z,82.46
2017-12-20T08:09:09.528Z,81.49
2017-12-20T08:11:37.957Z,81.19
2017-12-20T08:14:06.342Z,81.17
2017-12-20T08:16:34.721Z,81.39
2017-12-20T08:19:03.106Z,81.48
2017-12-20T08:21:31.442Z,81.14
2017-12-20T08:24:00.623Z,81.54
2017-12-20T08:26:34.617Z,81.18
2017-12-20T08:32:00.528Z,79.78
2017-12-20T08:34:28.870Z,79.41
2017-12-20T08:36:57.221Z,78.72
2017-12-20T08:39:26.065Z,78.91
2017-12-20T08:41:54.434Z,79.50
2017-12-20T08:44:22.843Z,80.29
2017-12-20T08:46:51.674Z,79.62
2017-12-20T08:49:20.136Z,79.87
2017-12-20T08:51:48.473Z,79.65
2017-12-20T08:54:17.463Z,80.50
2017-12-20T08:56:45.772Z,80.47
2017-12-20T08:59:14.084Z,80.34
2017-12-20T09:01:42.534Z,80.81
2017-12-20T09:04:10.922Z,82.17
2017-12-20T09:06:39.288Z,81.62
2017-12-20T09:09:07.672Z,81.99
2017-12-20T09:11:36.030Z,81.82
2017-12-20T09:14:04.352Z,82.11
2017-12-20T09:16:33.045Z,80.72
2017-12-20T09:19:01.438Z,80.86
2017-12-20T09:21:30.587Z,80.03
2017-12-20T09:23:58.974Z,80.32
2017-12-20T09:26:27.314Z,80.38
2017-12-20T09:28:56.049Z,80.30
2017-12-20T09:31:24.471Z,80.61
2017-12-20T09:33:53.605Z,80.65
2017-12-20T09:36:21.979Z,80.89
2017-12-20T09:38:50.567Z,80.69
2017-12-20T09:41:18.887Z,80.85
2017-12-20T09:43:47.208Z,80.88
2017-12-20T09:46:15.563Z,79.93
2017-12-20T09:48:43.935Z,79.95
2017-12-20T09:51:13.027Z,80.75
2017-12-20T09:53:41.376Z,81.32
2017-12-20T09:56:37.846Z,81.09
2017-12-20T09:59:06.697Z,80.94
2017-12-20T10:01:35.085Z,80.40
2017-12-20T10:04:03.462Z,80.25
2017-12-20T10:06:31.854Z,80.44
2017-12-20T10:09:00.237Z,79.83
2017-12-20T10:11:28.667Z,79.67
2017-12-20T10:13:57.012Z,79.51
2017-12-20T10:16:26.133Z,79.38
2017-12-20T10:18:54.481Z,80.22
2017-12-20T10:21:23.916Z,79.37
2017-12-20T10:23:52.273Z,79.16
2017-12-20T10:26:21.391Z,78.53
2017-12-20T10:28:49.771Z,77.89
2017-12-20T10:31:18.129Z,77.80
2017-12-20T10:33:47.238Z,77.90
2017-12-20T10:36:16.380Z,77.90
2017-12-20T10:38:44.756Z,79.24
2017-12-20T10:41:13.122Z,79.86
2017-12-20T10:43:41.580Z,79.59
2017-12-20T10:46:09.914Z,78.65
2017-12-20T10:48:38.284Z,78.30
2017-12-20T10:51:06.668Z,77.68
2017-12-20T10:53:35.030Z,79.10
2017-12-20T10:56:03.391Z,78.21
2017-12-20T10:58:31.782Z,78.64
2017-12-20T11:01:00.174Z,78.10
2017-12-20T11:03:36.606Z,77.13
2017-12-20T11:06:04.914Z,75.94
2017-12-20T11:08:33.238Z,76.65
2017-12-20T11:11:01.614Z,77.22
2017-12-20T11:13:29.954Z,76.14
2017-12-20T11:15:58.342Z,75.98
2017-12-20T11:18:26.743Z,76.12
2017-12-20T11:20:55.132Z,76.24
2017-12-20T11:23:24.205Z,77.44
2017-12-20T11:25:53.019Z,77.41
2017-12-20T11:28:21.601Z,76.65
2017-12-20T11:30:50.719Z,75.23
2017-12-20T11:33:19.896Z,74.95
2017-12-20T11:35:49.044Z,75.81
2017-12-20T11:38:17.441Z,74.95
2017-12-20T11:40:45.852Z,74.01
2017-12-20T11:43:14.963Z,74.37
2017-12-20T11:45:44.069Z,73.92
2017-12-20T11:48:12.545Z,73.83
2017-12-20T11:50:41.640Z,75.08
2017-12-20T11:53:10.729Z,74.25
2017-12-20T11:55:39.865Z,73.21
2017-12-20T11:58:08.211Z,74.30
2017-12-20T12:00:36.544Z,74.04
2017-12-20T12:03:04.896Z,74.57
2017-12-20T12:05:33.288Z,75.59
2017-12-20T12:08:01.657Z,74.91
2017-12-20T12:10:30.606Z,74.25
2017-12-20T12:12:59.748Z,73.64
2017-12-20T12:15:28.105Z,73.82
2017-12-20T12:17:56.466Z,74.01
2017-12-20T12:20:24.872Z,75.38
2017-12-20T12:22:53.234Z,75.06
2017-12-20T12:25:22.371Z,75.23
2017-12-20T12:27:50.714Z,76.98
2017-12-20T12:30:19.111Z,76.69
2017-12-20T12:32:47.786Z,77.15
2017-12-20T12:35:16.125Z,77.80
2017-12-20T12:37:44.494Z,76.87
2017-12-20T12:40:12.866Z,75.65
2017-12-20T12:42:41.964Z,77.99
2017-12-20T12:45:11.056Z,78.42
2017-12-20T12:47:39.426Z,77.79
2017-12-20T12:50:08.554Z,77.09
2017-12-20T12:52:36.900Z,76.73
2017-12-20T12:55:06.394Z,76.97
2017-12-20T12:57:34.783Z,77.21
2017-12-20T13:00:03.114Z,77.32
2017-12-20T13:02:31.514Z,77.44
2017-12-20T13:04:59.924Z,76.63
2017-12-20T13:07:28.300Z,77.15
2017-12-20T13:09:56.642Z,77.31
2017-12-20T13:12:25.031Z,77.90
2017-12-20T13:14:53.382Z,79.18
2017-12-20T13:17:21.823Z,78.89
2017-12-20T13:19:50.191Z,77.89
2017-12-20T13:22:18.507Z,77.28
2017-12-20T13:24:47.707Z,77.05
2017-12-20T13:27:16.044Z,77.16
2017-12-20T13:29:44.448Z,76.90
2017-12-20T13:32:12.842Z,77.06
2017-12-20T13:34:41.223Z,77.01
2017-12-20T13:37:09.614Z,77.55
2017-12-20T13:39:38.092Z,77.04
2017-12-20T13:42:06.482Z,76.70
2017-12-20T13:44:34.823Z,77.45
2017-12-20T13:47:04.026Z,78.07
2017-12-20T13:49:32.448Z,78.42
2017-12-20T13:52:00.826Z,78.51
2017-12-20T13:54:29.223Z,77.59
2017-12-20T13:56:57.550Z,77.64
2017-12-20T13:59:25.909Z,78.24
2017-12-20T14:01:54.669Z,78.41
2017-12-20T14:04:23.026Z,77.91
2017-12-20T14:06:52.122Z,78.81
2017-12-20T14:09:20.494Z,79.89
2017-12-20T14:12:09.385Z,79.25
2017-12-20T14:14:37.737Z,79.20
2017-12-20T14:17:06.891Z,79.63
2017-12-20T14:19:35.216Z,80.43
2017-12-20T14:22:03.683Z,80.76
2017-12-20T14:24:32.048Z,80.67
2017-12-20T14:27:01.190Z,81.57
2017-12-20T14:29:29.605Z,81.70
2017-12-20T14:31:57.941Z,81.26
2017-12-20T14:34:26.306Z,80.71
2017-12-20T14:36:54.675Z,81.45
2017-12-20T14:39:23.031Z,80.59
2017-12-20T14:41:51.420Z,80.91
2017-12-20T14:44:19.902Z,80.88
2017-12-20T14:46:48.296Z,80.19
2017-12-20T14:49:16.647Z,82.19
2017-12-20T14:51:45.023Z,82.28
2017-12-20T14:54:13.356Z,82.67
2017-12-20T14:56:41.701Z,83.51
2017-12-20T14:59:10.079Z,82.69
2017-12-20T15:01:38.433Z,82.49
2017-12-20T15:04:06.755Z,82.85
2017-12-20T15:06:46.809Z,82.99
2017-12-20T15:09:15.939Z,83.31
2017-12-20T15:11:44.308Z,82.98
2017-12-20T15:14:12.706Z,82.10
2017-12-20T15:16:41.083Z,80.94
2017-12-20T15:19:09.456Z,81.86
2017-12-20T15:21:37.841Z,82.35
2017-12-20T15:24:06.349Z,81.70
2017-12-20T15:26:34.683Z,82.32
2017-12-20T15:29:03.364Z,82.43
2017-12-20T15:31:31.719Z,82.44
2017-12-20T15:34:00.057Z,81.75
2017-12-20T15:36:28.430Z,81.50
2017-12-20T15:38:56.774Z,80.32
2017-12-20T15:41:25.894Z,79.57
2017-12-20T15:43:54.255Z,79.80
2017-12-20T15:46:22.636Z,80.06
2017-12-20T15:48:51.721Z,79.57
2017-12-20T15:51:21.137Z,80.66
2017-12-20T15:53:49.464Z,80.62
2017-12-20T15:56:22.654Z,80.69
2017-12-20T15:58:51.448Z,80.76
2017-12-20T16:01:19.802Z,80.39
2017-12-20T16:03:48.140Z,81.19
2017-12-20T16:06:17.329Z,80.70
2017-12-20T16:08:46.454Z,80.56
2017-12-20T16:11:14.833Z,80.63
2017-12-20T16:13:43.444Z,81.88
2017-12-20T16:16:11.786Z,81.90
2017-12-20T16:18:40.863Z,81.87
2017-12-20T16:21:09.271Z,82.15
2017-12-20T16:23:37.599Z,82.88
2017-12-20T16:26:05.953Z,83.60
2017-12-20T16:28:34.387Z,83.20
2017-12-20T16:31:03.481Z,83.11
2017-12-20T16:33:31.849Z,81.95
2017-12-20T16:36:00.402Z,82.07
2017-12-20T16:38:28.781Z,81.64
2017-12-20T16:40:57.113Z,81.75
2017-12-20T16:43:25.472Z,81.24
2017-12-20T16:45:53.824Z,80.93
2017-12-20T16:48:22.190Z,81.01
2017-12-20T16:50:50.565Z,80.58
2017-12-20T16:53:36.620Z,80.42
2017-12-20T16:56:05.944Z,80.33
2017-12-20T16:58:34.283Z,79.29
2017-12-20T17:01:02.617Z,78.96
2017-12-20T17:03:31.023Z,79.95
2017-12-20T17:05:59.391Z,79.42
2017-12-20T17:08:28.525Z,79.52
2017-12-20T17:10:56.887Z,79.64
2017-12-20T17:13:25.240Z,79.02
2017-12-20T17:15:53.611Z,79.20
2017-12-20T17:18:22.361Z,79.71
2017-12-20T17:20:51.457Z,80.08
2017-12-20T17:23:19.831Z,79.37
2017-12-20T17:25:48.998Z,78.63
2017-12-20T17:28:17.350Z,78.38
2017-12-20T17:30:45.689Z,78.72
2017-12-20T17:33:14.839Z,79.48
2017-12-20T17:35:43.169Z,78.92
2017-12-20T17:38:11.497Z,79.08
2017-12-20T17:40:40.009Z,79.01
2017-12-20T17:43:08.365Z,78.75
2017-12-20T17:45:36.735Z,78.23
2017-12-20T17:48:05.136Z,77.67
2017-12-20T17:50:33.516Z,78.67
2017-12-20T17:53:01.890Z,78.74
2017-12-20T17:55:30.351Z,78.64
2017-12-20T17:57:58.683Z,78.18
2017-12-20T18:00:27.078Z,78.23
2017-12-20T18:02:55.817Z,78.33
2017-12-20T18:05:25.723Z,78.35
2017-12-20T18:07:54.238Z,78.75
2017-12-20T18:10:23.498Z,78.80
2017-12-20T18:12:51.902Z,78.40
2017-12-20T18:15:20.253Z,78.97
2017-12-20T18:17:48.659Z,79.29
2017-12-20T18:20:17.009Z,80.26
2017-12-20T18:22:45.377Z,80.00
2017-12-20T18:25:13.966Z,79.92
2017-12-20T18:27:42.341Z,79.69
2017-12-20T18:30:10.702Z,80.32
2017-12-20T18:32:39.074Z,81.13
2017-12-20T18:35:07.412Z,81.02
2017-12-20T18:37:35.770Z,80.14
2017-12-20T18:40:06.133Z,80.10
2017-12-20T18:42:34.502Z,79.87
2017-12-20T18:45:02.933Z,79.29
2017-12-20T18:47:32.756Z,79.44
2017-12-20T18:50:01.102Z,79.31
2017-12-20T18:52:29.481Z,79.47
2017-12-20T18:54:58.627Z,78.83
2017-12-20T18:57:26.940Z,79.01
2017-12-20T18:59:55.273Z,78.97
2017-12-20T19:02:23.655Z,79.33
2017-12-20T19:04:52.037Z,79.86
2017-12-20T19:07:20.389Z,79.35
2017-12-20T19:09:49.170Z,79.38
2017-12-20T19:12:17.553Z,78.95
2017-12-20T19:14:45.934Z,79.38
2017-12-20T19:17:14.347Z,79.93
2017-12-20T19:19:42.745Z,79.94
2017-12-20T19:22:17.034Z,79.65
2017-12-20T19:24:45.427Z,80.51
2017-12-20T19:27:14.550Z,80.70
2017-12-20T19:29:43.274Z,80.18
2017-12-20T19:32:12.399Z,80.52
2017-12-20T19:34:40.754Z,80.56
2017-12-20T19:37:09.876Z,80.16
2017-12-20T19:39:38.258Z,79.52
2017-12-20T19:42:06.600Z,79.92
2017-12-20T19:44:35.765Z,79.42
2017-12-20T19:47:04.107Z,78.86
2017-12-20T19:49:32.491Z,78.47
2017-12-20T19:52:01.206Z,78.91
2017-12-20T19:54:29.603Z,79.88
2017-12-20T19:56:57.956Z,79.38
2017-12-20T19:59:26.332Z,79.26
2017-12-20T20:01:54.730Z,79.14
2017-12-20T20:04:23.093Z,78.91
2017-12-20T20:06:51.463Z,79.72
2017-12-20T20:09:20.593Z,79.89
2017-12-20T20:11:49.021Z,81.12
2017-12-20T20:14:17.640Z,81.74
2017-12-20T20:16:45.999Z,81.35
2017-12-20T20:19:14.993Z,81.70
2017-12-20T20:21:44.230Z,81.57
2017-12-20T20:24:12.716Z,80.80
2017-12-20T20:26:41.125Z,81.32
2017-12-20T20:29:09.567Z,81.24
2017-12-20T20:31:37.984Z,80.89
2017-12-20T20:34:06.366Z,81.72
2017-12-20T20:36:34.814Z,81.60
2017-12-20T20:39:03.297Z,81.29
2017-12-20T20:41:31.678Z,81.81
2017-12-20T20:44:00.103Z,81.52
2017-12-20T20:46:28.429Z,80.72
2017-12-20T20:48:56.839Z,80.57
2017-12-20T20:51:26.011Z,80.11
2017-12-20T20:53:54.737Z,80.52
2017-12-20T20:56:23.070Z,80.42
2017-12-20T20:58:51.713Z,80.69
2017-12-20T21:01:20.054Z,80.42
2017-12-20T21:03:48.463Z,80.52
2017-12-20T21:06:16.879Z,80.76
2017-12-20T21:08:45.989Z,80.62
2017-12-20T21:11:14.390Z,81.09
2017-12-20T21:13:42.766Z,80.46
2017-12-20T21:16:11.746Z,80.63
2017-12-20T21:18:40.205Z,80.80
2017-12-20T21:21:08.681Z,80.93
2017-12-20T21:23:37.825Z,79.93
2017-12-20T21:26:06.978Z,79.84
2017-12-20T21:28:35.375Z,80.16
2017-12-20T21:31:03.702Z,80.60
2017-12-20T21:33:32.013Z,80.47
2017-12-20T21:36:00.384Z,80.37
2017-12-20T21:38:28.790Z,80.69
2017-12-20T21:40:57.170Z,80.20
2017-12-20T21:43:25.622Z,80.95
2017-12-20T21:45:53.966Z,80.46
2017-12-20T21:48:23.203Z,81.44
2017-12-20T21:50:51.608Z,80.57
2017-12-20T21:53:19.998Z,81.27
2017-12-20T21:55:48.324Z,80.60
2017-12-20T21:58:16.715Z,80.55
2017-12-20T22:00:45.048Z,80.78
2017-12-20T22:03:13.507Z,80.28
2017-12-20T22:05:42.195Z,80.28
2017-12-20T22:08:10.574Z,80.68
2017-12-20T22:10:38.914Z,81.48
2017-12-20T22:13:08.353Z,81.58
2017-12-20T22:15:36.707Z,81.32
2017-12-20T22:18:05.080Z,80.70
2017-12-20T22:20:33.485Z,80.85
2017-12-20T22:23:01.841Z,80.60
2017-12-20T22:25:30.219Z,80.23
2017-12-20T22:27:58.894Z,80.83
2017-12-20T22:30:27.246Z,81.02
2017-12-20T22:32:55.584Z,81.47
2017-12-20T22:35:24.742Z,81.67
2017-12-20T22:37:53.284Z,81.08
2017-12-20T22:40:21.603Z,80.27
2017-12-20T22:42:50.045Z,79.96
2017-12-20T22:45:18.397Z,80.69
2017-12-20T22:47:46.747Z,81.56
2017-12-20T22:50:15.386Z,80.59
2017-12-20T22:52:43.742Z,80.39
2017-12-20T22:55:12.129Z,79.93
2017-12-20T22:57:40.557Z,79.75
2017-12-20T23:00:09.688Z,80.15
2017-12-20T23:02:38.026Z,79.76
2017-12-20T23:05:07.221Z,79.57
2017-12-20T23:07:35.626Z,79.81
2017-12-20T23:10:03.957Z,80.93
2017-12-20T23:12:33.716Z,80.47
2017-12-20T23:15:02.071Z,80.41
2017-12-20T23:17:31.184Z,80.47
2017-12-20T23:20:00.314Z,81.09
2017-12-20T23:22:28.674Z,81.63
2017-12-20T23:24:57.033Z,80.83
2017-12-20T23:27:26.133Z,80.41
2017-12-20T23:29:55.240Z,80.32
2017-12-20T23:32:23.611Z,80.51
2017-12-20T23:34:55.824Z,81.13
2017-12-20T23:37:24.183Z,81.15
2017-12-20T23:39:52.584Z,81.02
2017-12-20T23:42:20.954Z,80.87
2017-12-20T23:44:49.294Z,79.99
2017-12-20T23:47:17.663Z,79.83
2017-12-20T23:49:47.630Z,79.34
2017-12-20T23:52:15.942Z,80.15
2017-12-20T23:54:44.285Z,80.60
2017-12-20T23:57:13.008Z,80.79
2017-12-20T23:59:41.351Z,80.38
